Time,TemperatureF,DewpointF,PressureIn,WindDirection,WindDirectionDegrees,WindSpeedMPH,WindSpeedGustMPH,Humidity,HourlyPrecipIn,Conditions,Clouds,dailyrainin,SoftwareType,DateUTC
2013-05-08 00:02:00,73.0,-99.9,30.01,North,350,3.0,5.0,-999,-99.99,,,-99.99,,2013-05-08 10:02:00,
2013-05-08 00:12:00,72.0,-99.9,30.00,NNW,342,3.0,4.0,-999,-99.99,,,-99.99,,2013-05-08 10:12:00,
2013-05-08 00:23:00,72.0,-99.9,30.00,NNW,343,2.0,3.0,-999,-99.99,,,-99.99,,2013-05-08 10:23:00,
2013-05-08 00:33:00,72.0,-99.9,30.00,NNW,346,3.0,5.0,-999,-99.99,,,-99.99,,2013-05-08 10:33:00,
2013-05-08 00:42:00,72.0,-99.9,30.00,NNW,340,4.0,5.0,-999,-99.99,,,-99.99,,2013-05-08 10:42:00,
2013-05-08 00:53:00,72.0,-99.9,30.00,NNW,333,4.0,6.0,-999,-99.99,,,-99.99,,2013-05-08 10:53:00,
2013-05-08 01:02:00,72.0,-99.9,29.99,North,351,5.0,6.0,-999,-99.99,,,-99.99,,2013-05-08 11:02:00,
2013-05-08 01:12:00,72.0,-99.9,29.99,NNW,348,4.0,6.0,-999,-99.99,,,-99.99,,2013-05-08 11:12:00,
2013-05-08 01:22:00,72.0,-99.9,29.99,NNW,346,5.0,7.0,-999,-99.99,,,-99.99,,2013-05-08 11:22:00,
2013-05-08 01:33:00,72.0,-99.9,29.98,North,11,4.0,7.0,-999,-99.99,,,-99.99,,2013-05-08 11:33:00,
2013-05-08 01:42:00,72.0,-99.9,29.98,North,2,3.0,5.0,-999,-99.99,,,-99.99,,2013-05-08 11:42:00,
2013-05-08 01:52:00,72.0,-99.9,29.98,North,1,3.0,4.0,-999,-99.99,,,-99.99,,2013-05-08 11:52:00,
2013-05-08 02:02:00,72.0,-99.9,29.97,NNW,347,2.0,3.0,-999,-99.99,,,-99.99,,2013-05-08 12:02:00,
2013-05-08 02:11:00,72.0,-99.9,29.97,NE,51,1.0,2.0,-999,-99.99,,,-99.99,,2013-05-08 12:11:00,
2013-05-08 02:22:00,72.0,-99.9,29.97,NE,51,-999.0,1.0,-999,-99.99,,,-99.99,,2013-05-08 12:22:00,
2013-05-08 02:32:00,71.0,-99.9,29.97,North,350,3.0,4.0,-999,-99.99,,,-99.99,,2013-05-08 12:32:00,
2013-05-08 02:42:00,71.0,-99.9,29.97,NNW,347,3.0,4.0,-999,-99.99,,,-99.99,,2013-05-08 12:42:00,
2013-05-08 02:52:00,72.0,-99.9,29.96,NNW,331,4.0,5.0,-999,-99.99,,,-99.99,,2013-05-08 12:52:00,
2013-05-08 03:01:00,72.0,-99.9,29.96,NNW,342,2.0,3.0,-999,-99.99,,,-99.99,,2013-05-08 13:01:00,
2013-05-08 03:12:00,72.0,-99.9,29.96,NNW,327,3.0,4.0,-999,-99.99,,,-99.99,,2013-05-08 13:12:00,
2013-05-08 03:21:00,72.0,-99.9,29.96,NNW,329,2.0,3.0,-999,-99.99,,,-99.99,,2013-05-08 13:21:00,
2013-05-08 03:32:00,72.0,-99.9,29.96,NNW,338,2.0,4.0,-999,-99.99,,,-99.99,,2013-05-08 13:32:00,
2013-05-08 03:42:00,72.0,-99.9,29.95,ENE,67,1.0,2.0,-999,-99.99,,,-99.99,,2013-05-08 13:42:00,
2013-05-08 03:52:00,72.0,-99.9,29.96,ENE,77,1.0,3.0,-999,-99.99,,,-99.99,,2013-05-08 13:52:00,
2013-05-08 04:02:00,71.0,-99.9,29.96,ENE,68,1.0,2.0,-999,-99.99,,,-99.99,,2013-05-08 14:02:00,
2013-05-08 04:12:00,72.0,-99.9,29.96,ENE,61,1.0,2.0,-999,-99.99,,,-99.99,,2013-05-08 14:12:00,
2013-05-08 04:22:00,72.0,-99.9,29.96,ENE,63,2.0,2.0,-999,-99.99,,,-99.99,,2013-05-08 14:22:00,
2013-05-08 04:32:00,71.0,-99.9,29.95,NE,35,-999.0,1.0,-999,-99.99,,,-99.99,,2013-05-08 14:32:00,
2013-05-08 04:42:00,71.0,-99.9,29.95,NNE,12,-999.0,1.0,-999,-99.99,,,-99.99,,2013-05-08 14:42:00,
2013-05-08 04:52:00,71.0,-99.9,29.95,NNE,12,-999.0,1.0,-999,-99.99,,,-99.99,,2013-05-08 14:52:00,
2013-05-08 05:02:00,71.0,-99.9,29.96,North,-999,-999.0,1.0,-999,-99.99,,,-99.99,,2013-05-08 15:02:00,
2013-05-08 05:11:00,71.0,-99.9,29.96,North,-999,-999.0,-999.0,-999,-99.99,,,-99.99,,2013-05-08 15:11:00,
2013-05-08 05:22:00,71.0,-99.9,29.96,North,9,-999.0,0.0,-999,-99.99,,,-99.99,,2013-05-08 15:22:00,
2013-05-08 05:33:00,71.0,-99.9,29.96,NE,35,-999.0,1.0,-999,-99.99,,,-99.99,,2013-05-08 15:33:00,
2013-05-08 05:42:00,71.0,-99.9,29.96,East,99,1.0,2.0,-999,-99.99,,,-99.99,,2013-05-08 15:42:00,
2013-05-08 05:53:00,71.0,-99.9,29.96,North,-999,-999.0,-999.0,-999,-99.99,,,-99.99,,2013-05-08 15:53:00,
2013-05-08 06:03:00,71.0,-99.9,29.96,North,-999,-999.0,1.0,-999,-99.99,,,-99.99,,2013-05-08 16:03:00,
2013-05-08 06:13:00,71.0,-99.9,29.96,North,-999,1.0,2.0,-999,-99.99,,,-99.99,,2013-05-08 16:13:00,
2013-05-08 06:23:00,71.0,-99.9,29.96,NNW,348,2.0,2.0,-999,-99.99,,,-99.99,,2013-05-08 16:23:00,
2013-05-08 06:33:00,70.0,-99.9,29.97,NNW,329,4.0,5.0,-999,-99.99,,,-99.99,,2013-05-08 16:33:00,
2013-05-08 06:42:00,70.0,-99.9,29.97,NNW,342,3.0,5.0,-999,-99.99,,,-99.99,,2013-05-08 16:42:00,
2013-05-08 06:52:00,71.0,-99.9,29.97,NNW,343,2.0,2.0,-999,-99.99,,,-99.99,,2013-05-08 16:52:00,
2013-05-08 07:02:00,71.0,-99.9,29.98,NNW,341,1.0,3.0,-999,-99.99,,,-99.99,,2013-05-08 17:02:00,
2013-05-08 07:12:00,71.0,-99.9,29.98,North,-999,-999.0,-999.0,-999,-99.99,,,-99.99,,2013-05-08 17:12:00,
2013-05-08 07:22:00,72.0,-99.9,29.98,North,-999,-999.0,-999.0,-999,-99.99,,,-99.99,,2013-05-08 17:22:00,
2013-05-08 07:32:00,72.0,-99.9,29.98,North,-999,-999.0,-999.0,-999,-99.99,,,-99.99,,2013-05-08 17:32:00,
2013-05-08 07:42:00,72.0,-99.9,29.98,North,-999,-999.0,-999.0,-999,-99.99,,,-99.99,,2013-05-08 17:42:00,
2013-05-08 07:52:00,73.0,-99.9,29.99,SSW,200,0.0,3.0,-999,-99.99,,,-99.99,,2013-05-08 17:52:00,
2013-05-08 08:02:00,73.0,-99.9,29.99,WNW,285,2.0,3.0,-999,-99.99,,,-99.99,,2013-05-08 18:02:00,
2013-05-08 08:12:00,73.0,-99.9,30.00,West,270,2.0,3.0,-999,-99.99,,,-99.99,,2013-05-08 18:12:00,
2013-05-08 08:22:00,74.0,-99.9,30.00,WSW,258,3.0,4.0,-999,-99.99,,,-99.99,,2013-05-08 18:22:00,
2013-05-08 08:32:00,74.0,-99.9,30.00,SW,223,5.0,6.0,-999,-99.99,,,-99.99,,2013-05-08 18:32:00,
2013-05-08 08:42:00,74.0,-99.9,30.01,SW,226,4.0,5.0,-999,-99.99,,,-99.99,,2013-05-08 18:42:00,
2013-05-08 08:52:00,74.0,-99.9,30.01,SW,226,5.0,7.0,-999,-99.99,,,-99.99,,2013-05-08 18:52:00,
2013-05-08 09:02:00,74.0,-99.9,30.01,SW,219,5.0,6.0,-999,-99.99,,,-99.99,,2013-05-08 19:02:00,
2013-05-08 09:11:00,74.0,-99.9,30.01,SW,234,4.0,6.0,-999,-99.99,,,-99.99,,2013-05-08 19:11:00,
2013-05-08 09:22:00,74.0,-99.9,30.01,WSW,247,4.0,6.0,-999,-99.99,,,-99.99,,2013-05-08 19:22:00,
2013-05-08 09:32:00,74.0,-99.9,30.02,SW,235,5.0,6.0,-999,-99.99,,,-99.99,,2013-05-08 19:32:00,
2013-05-08 09:42:00,74.0,-99.9,30.02,WSW,247,4.0,5.0,-999,-99.99,,,-99.99,,2013-05-08 19:42:00,
2013-05-08 09:52:00,74.0,-99.9,30.02,WSW,245,4.0,6.0,-999,-99.99,,,-99.99,,2013-05-08 19:52:00,
2013-05-08 10:02:00,74.0,-99.9,30.02,WSW,242,4.0,5.0,-999,-99.99,,,-99.99,,2013-05-08 20:02:00,
2013-05-08 10:12:00,74.0,-99.9,30.03,SW,233,3.0,5.0,-999,-99.99,,,-99.99,,2013-05-08 20:12:00,
2013-05-08 10:22:00,74.0,-99.9,30.03,SW,229,3.0,5.0,-999,-99.99,,,-99.99,,2013-05-08 20:22:00,
2013-05-08 10:32:00,74.0,-99.9,30.03,WSW,242,3.0,5.0,-999,-99.99,,,-99.99,,2013-05-08 20:32:00,
2013-05-08 10:42:00,74.0,-99.9,30.03,SW,231,5.0,6.0,-999,-99.99,,,-99.99,,2013-05-08 20:42:00,
2013-05-08 10:52:00,75.0,-99.9,30.03,SW,235,5.0,7.0,-999,-99.99,,,-99.99,,2013-05-08 20:52:00,
2013-05-08 11:02:00,75.0,-99.9,30.02,SW,227,6.0,9.0,-999,-99.99,,,-99.99,,2013-05-08 21:02:00,
2013-05-08 11:12:00,75.0,-99.9,30.02,WSW,238,5.0,8.0,-999,-99.99,,,-99.99,,2013-05-08 21:12:00,
2013-05-08 11:22:00,74.0,-99.9,30.02,WSW,238,6.0,8.0,-999,-99.99,,,-99.99,,2013-05-08 21:22:00,
2013-05-08 11:33:00,75.0,-99.9,30.02,SW,226,6.0,11.0,-999,-99.99,,,-99.99,,2013-05-08 21:33:00,
2013-05-08 11:43:00,75.0,-99.9,30.02,SW,226,6.0,9.0,-999,-99.99,,,-99.99,,2013-05-08 21:43:00,
2013-05-08 11:53:00,75.0,-99.9,30.02,SW,229,6.0,9.0,-999,-99.99,,,-99.99,,2013-05-08 21:53:00,
2013-05-08 12:03:00,76.0,-99.9,30.01,SSW,210,6.0,9.0,-999,-99.99,,,-99.99,,2013-05-08 22:03:00,
2013-05-08 12:12:00,76.0,-99.9,30.01,SSW,205,6.0,10.0,-999,-99.99,,,-99.99,,2013-05-08 22:12:00,
2013-05-08 12:22:00,76.0,-99.9,30.01,SW,219,8.0,11.0,-999,-99.99,,,-99.99,,2013-05-08 22:22:00,
2013-05-08 12:33:00,76.0,-99.9,30.01,SW,220,8.0,10.0,-999,-99.99,,,-99.99,,2013-05-08 22:33:00,
2013-05-08 12:42:00,76.0,-99.9,30.01,SW,216,7.0,10.0,-999,-99.99,,,-99.99,,2013-05-08 22:42:00,
2013-05-08 12:53:00,76.0,-99.9,30.01,SW,222,7.0,11.0,-999,-99.99,,,-99.99,,2013-05-08 22:53:00,
2013-05-08 13:02:00,76.0,-99.9,30.01,SW,223,7.0,10.0,-999,-99.99,,,-99.99,,2013-05-08 23:02:00,
2013-05-08 13:12:00,76.0,-99.9,30.01,SW,225,8.0,11.0,-999,-99.99,,,-99.99,,2013-05-08 23:12:00,
2013-05-08 13:22:00,76.0,-99.9,30.00,SW,223,8.0,11.0,-999,-99.99,,,-99.99,,2013-05-08 23:22:00,
2013-05-08 13:33:00,75.0,-99.9,30.00,SW,231,9.0,10.0,-999,-99.99,,,-99.99,,2013-05-08 23:33:00,
2013-05-08 13:42:00,75.0,-99.9,30.00,SW,233,10.0,11.0,-999,-99.99,,,-99.99,,2013-05-08 23:42:00,
2013-05-08 13:53:00,75.0,-99.9,30.00,WSW,237,9.0,10.0,-999,-99.99,,,-99.99,,2013-05-08 23:53:00,
2013-05-08 14:02:00,75.0,-99.9,29.99,SW,235,9.0,11.0,-999,-99.99,,,-99.99,,2013-05-09 00:02:00,
2013-05-08 14:12:00,76.0,-99.9,29.99,SW,228,7.0,10.0,-999,-99.99,,,-99.99,,2013-05-09 00:12:00,
2013-05-08 14:21:00,76.0,-99.9,29.99,SW,226,8.0,9.0,-999,-99.99,,,-99.99,,2013-05-09 00:21:00,
2013-05-08 14:32:00,76.0,-99.9,29.99,WSW,239,8.0,9.0,-999,-99.99,,,-99.99,,2013-05-09 00:32:00,
2013-05-08 14:42:00,76.0,-99.9,29.98,SW,227,6.0,9.0,-999,-99.99,,,-99.99,,2013-05-09 00:42:00,
2013-05-08 14:52:00,76.0,-99.9,29.98,WSW,237,8.0,9.0,-999,-99.99,,,-99.99,,2013-05-09 00:52:00,
2013-05-08 15:02:00,76.0,-99.9,29.98,SW,232,7.0,8.0,-999,-99.99,,,-99.99,,2013-05-09 01:02:00,
2013-05-08 15:12:00,76.0,-99.9,29.98,SW,226,7.0,8.0,-999,-99.99,,,-99.99,,2013-05-09 01:12:00,
2013-05-08 15:22:00,76.0,-99.9,29.97,WSW,243,6.0,9.0,-999,-99.99,,,-99.99,,2013-05-09 01:22:00,
2013-05-08 15:32:00,76.0,-99.9,29.97,WSW,238,6.0,9.0,-999,-99.99,,,-99.99,,2013-05-09 01:32:00,
2013-05-08 15:42:00,76.0,-99.9,29.96,SW,230,6.0,9.0,-999,-99.99,,,-99.99,,2013-05-09 01:42:00,
2013-05-08 15:53:00,76.0,-99.9,29.96,SW,229,7.0,8.0,-999,-99.99,,,-99.99,,2013-05-09 01:53:00,
2013-05-08 16:02:00,77.0,-99.9,29.96,SW,228,7.0,10.0,-999,-99.99,,,-99.99,,2013-05-09 02:02:00,
2013-05-08 16:12:00,76.0,-99.9,29.96,SW,231,7.0,8.0,-999,-99.99,,,-99.99,,2013-05-09 02:12:00,
2013-05-08 16:22:00,76.0,-99.9,29.96,SW,228,7.0,9.0,-999,-99.99,,,-99.99,,2013-05-09 02:22:00,
2013-05-08 16:33:00,76.0,-99.9,29.96,SW,234,6.0,9.0,-999,-99.99,,,-99.99,,2013-05-09 02:33:00,
2013-05-08 16:42:00,76.0,-99.9,29.96,SW,234,6.0,9.0,-999,-99.99,,,-99.99,,2013-05-09 02:42:00,
2013-05-08 16:52:00,76.0,-99.9,29.96,SW,234,6.0,9.0,-999,-99.99,,,-99.99,,2013-05-09 02:52:00,
2013-05-08 17:02:00,76.0,-99.9,29.96,SW,235,6.0,8.0,-999,-99.99,,,-99.99,,2013-05-09 03:02:00,
2013-05-08 17:11:00,76.0,-99.9,29.96,SW,228,7.0,8.0,-999,-99.99,,,-99.99,,2013-05-09 03:11:00,
2013-05-08 17:22:00,76.0,-99.9,29.96,SW,234,6.0,9.0,-999,-99.99,,,-99.99,,2013-05-09 03:22:00,
2013-05-08 17:33:00,76.0,-99.9,29.96,WSW,244,6.0,8.0,-999,-99.99,,,-99.99,,2013-05-09 03:33:00,
2013-05-08 17:43:00,77.0,-99.9,29.97,SW,226,5.0,8.0,-999,-99.99,,,-99.99,,2013-05-09 03:43:00,
2013-05-08 17:53:00,77.0,-99.9,29.97,SW,234,7.0,9.0,-999,-99.99,,,-99.99,,2013-05-09 03:53:00,
2013-05-08 18:03:00,76.0,-99.9,29.97,SW,224,7.0,9.0,-999,-99.99,,,-99.99,,2013-05-09 04:03:00,
2013-05-08 18:13:00,76.0,-99.9,29.97,SW,227,6.0,8.0,-999,-99.99,,,-99.99,,2013-05-09 04:13:00,
2013-05-08 18:23:00,76.0,-99.9,29.97,SW,226,6.0,8.0,-999,-99.99,,,-99.99,,2013-05-09 04:23:00,
2013-05-08 18:33:00,76.0,-99.9,29.98,SW,223,5.0,7.0,-999,-99.99,,,-99.99,,2013-05-09 04:33:00,
2013-05-08 18:43:00,76.0,-99.9,29.98,WSW,240,4.0,6.0,-999,-99.99,,,-99.99,,2013-05-09 04:43:00,
2013-05-08 18:53:00,77.0,-99.9,29.98,SW,214,4.0,7.0,-999,-99.99,,,-99.99,,2013-05-09 04:53:00,
2013-05-08 19:02:00,77.0,-99.9,29.98,SSW,192,4.0,6.0,-999,-99.99,,,-99.99,,2013-05-09 05:02:00,
2013-05-08 19:12:00,77.0,-99.9,29.98,SSW,197,4.0,7.0,-999,-99.99,,,-99.99,,2013-05-09 05:12:00,
2013-05-08 19:22:00,77.0,-99.9,29.98,SSW,204,3.0,6.0,-999,-99.99,,,-99.99,,2013-05-09 05:22:00,
2013-05-08 19:32:00,77.0,-99.9,29.99,South,179,4.0,7.0,-999,-99.99,,,-99.99,,2013-05-09 05:32:00,
2013-05-08 19:43:00,77.0,-99.9,29.99,South,190,2.0,4.0,-999,-99.99,,,-99.99,,2013-05-09 05:43:00,
2013-05-08 19:52:00,77.0,-99.9,29.99,South,191,2.0,5.0,-999,-99.99,,,-99.99,,2013-05-09 05:52:00,
2013-05-08 20:02:00,77.0,-99.9,29.99,SSE,166,3.0,6.0,-999,-99.99,,,-99.99,,2013-05-09 06:02:00,
2013-05-08 20:12:00,77.0,-99.9,30.00,South,190,2.0,3.0,-999,-99.99,,,-99.99,,2013-05-09 06:12:00,
2013-05-08 20:22:00,77.0,-99.9,30.00,South,184,2.0,4.0,-999,-99.99,,,-99.99,,2013-05-09 06:22:00,
2013-05-08 20:32:00,77.0,-99.9,30.00,South,189,2.0,5.0,-999,-99.99,,,-99.99,,2013-05-09 06:32:00,
2013-05-08 20:42:00,76.0,-99.9,30.01,SSW,208,2.0,5.0,-999,-99.99,,,-99.99,,2013-05-09 06:42:00,
2013-05-08 20:52:00,76.0,-99.9,30.01,South,188,2.0,4.0,-999,-99.99,,,-99.99,,2013-05-09 06:52:00,
2013-05-08 21:01:00,76.0,-99.9,30.02,SSW,210,2.0,4.0,-999,-99.99,,,-99.99,,2013-05-09 07:01:00,
2013-05-08 21:12:00,76.0,-99.9,30.02,SSW,204,2.0,4.0,-999,-99.99,,,-99.99,,2013-05-09 07:12:00,
2013-05-08 21:22:00,76.0,-99.9,30.02,South,175,4.0,5.0,-999,-99.99,,,-99.99,,2013-05-09 07:22:00,
2013-05-08 21:32:00,76.0,-99.9,30.03,SSE,158,2.0,4.0,-999,-99.99,,,-99.99,,2013-05-09 07:32:00,
2013-05-08 21:43:00,76.0,-99.9,30.03,ESE,108,1.0,2.0,-999,-99.99,,,-99.99,,2013-05-09 07:43:00,
2013-05-08 21:52:00,76.0,-99.9,30.03,ENE,64,2.0,4.0,-999,-99.99,,,-99.99,,2013-05-09 07:52:00,
2013-05-08 22:02:00,76.0,-99.9,30.03,NE,54,0.0,2.0,-999,-99.99,,,-99.99,,2013-05-09 08:02:00,
2013-05-08 22:11:00,76.0,-99.9,30.03,East,84,1.0,2.0,-999,-99.99,,,-99.99,,2013-05-09 08:11:00,
2013-05-08 22:22:00,75.0,-99.9,30.03,ENE,73,2.0,3.0,-999,-99.99,,,-99.99,,2013-05-09 08:22:00,
2013-05-08 22:32:00,75.0,-99.9,30.04,East,79,2.0,2.0,-999,-99.99,,,-99.99,,2013-05-09 08:32:00,
2013-05-08 22:42:00,75.0,-99.9,30.04,ENE,67,2.0,3.0,-999,-99.99,,,-99.99,,2013-05-09 08:42:00,
2013-05-08 22:52:00,75.0,-99.9,30.04,East,97,2.0,3.0,-999,-99.99,,,-99.99,,2013-05-09 08:52:00,
2013-05-08 23:02:00,75.0,-99.9,30.04,ENE,66,1.0,2.0,-999,-99.99,,,-99.99,,2013-05-09 09:02:00,
2013-05-08 23:12:00,75.0,-99.9,30.04,NE,54,1.0,2.0,-999,-99.99,,,-99.99,,2013-05-09 09:12:00,
2013-05-08 23:22:00,75.0,-99.9,30.04,NE,52,2.0,4.0,-999,-99.99,,,-99.99,,2013-05-09 09:22:00,
2013-05-08 23:32:00,75.0,-99.9,30.04,ENE,66,3.0,3.0,-999,-99.99,,,-99.99,,2013-05-09 09:32:00,
2013-05-08 23:43:00,75.0,-99.9,30.04,ENE,65,3.0,4.0,-999,-99.99,,,-99.99,,2013-05-09 09:43:00,
2013-05-08 23:53:00,75.0,-99.9,30.04,East,93,2.0,4.0,-999,-99.99,,,-99.99,,2013-05-09 09:53:00,